Time;durP1;ratioP1;P1;durP2;ratioP2;P2;SDS_P1;SDS_P2;PMS_P1;PMS_P2;Temp;Humidity;BMP_temperature;BMP_pressure;BME280_temperature;BME280_humidity;BME280_pressure;Samples;Min_cycle;Max_cycle;Signal;HPM_P1;HPM_P2
2021/10/06 00:01:36;;;;;;;3.45;3.15;;;;;;;14.18;71.61;100183.59;5028573;28;20029;-40
2021/10/06 00:04:02;;;;;;;3.30;3.00;;;;;;;14.17;71.70;100195.09;5023047;28;20026;-40
2021/10/06 00:06:27;;;;;;;2.88;2.67;;;;;;;14.17;71.83;100192.44;5025774;28;20109;-42
2021/10/06 00:08:53;;;;;;;3.20;2.90;;;;;;;14.17;71.78;100205.69;5025181;28;20065;-41
2021/10/06 00:11:19;;;;;;;4.65;2.83;;;;;;;14.18;71.64;100209.22;5024540;28;20045;-41
2021/10/06 00:13:44;;;;;;;2.88;2.60;;;;;;;14.17;71.77;100216.28;5023268;28;20033;-41
2021/10/06 00:16:12;;;;;;;2.92;2.72;;;;;;;14.16;71.72;100211.91;5027901;28;20026;-41
2021/10/06 00:18:40;;;;;;;3.00;2.70;;;;;;;14.16;71.71;100211.91;5029242;28;20009;-41
2021/10/06 00:21:05;;;;;;;2.97;2.75;;;;;;;14.16;71.78;100214.56;5014190;28;20108;-41
2021/10/06 00:23:32;;;;;;;2.85;2.55;;;;;;;14.17;71.66;100232.22;5027881;28;20097;-42
2021/10/06 00:26:03;;;;;;;2.90;2.60;;;;;;;14.16;71.73;100237.56;5012037;28;20495;-41
2021/10/06 00:28:29;;;;;;;3.88;2.83;;;;;;;14.16;71.68;100242.84;5023824;28;20033;-41
2021/10/06 00:30:57;;;;;;;2.65;2.45;;;;;;;14.15;71.70;100239.34;5018881;28;20040;-42
2021/10/06 00:33:26;;;;;;;3.28;2.45;;;;;;;14.16;71.71;100245.50;5015528;28;20055;-41
2021/10/06 00:35:53;;;;;;;2.67;2.47;;;;;;;14.15;71.79;100257.03;5017395;28;20025;-41
2021/10/06 00:38:18;;;;;;;3.10;2.80;;;;;;;14.14;71.83;100261.47;5024480;28;20109;-40
2021/10/06 00:40:44;;;;;;;2.83;2.58;;;;;;;14.14;71.73;100269.44;5027466;28;20104;-42
2021/10/06 00:43:09;;;;;;;2.78;2.58;;;;;;;14.14;71.79;100266.78;5023610;28;20415;-41
2021/10/06 00:45:35;;;;;;;2.70;2.42;;;;;;;14.13;71.89;100259.75;5029187;28;20030;-42
2021/10/06 00:48:00;;;;;;;2.88;2.67;;;;;;;14.13;71.78;100259.75;5019280;28;20568;-42
2021/10/06 00:50:25;;;;;;;2.65;2.45;;;;;;;14.13;71.93;100254.44;5022066;28;20057;-41
2021/10/06 00:52:51;;;;;;;2.55;2.35;;;;;;;14.13;71.83;100265.03;5023310;28;20021;-41
2021/10/06 00:55:16;;;;;;;2.72;2.53;;;;;;;14.13;71.94;100265.03;5004838;28;20034;-43
2021/10/06 00:57:42;;;;;;;2.80;2.60;;;;;;;14.11;71.92;100273.03;5021113;28;20079;-41
2021/10/06 01:00:09;;;;;;;2.45;2.33;;;;;;;14.12;71.95;100279.22;5026591;28;20017;-41
2021/10/06 01:02:34;;;;;;;2.30;2.10;;;;;;;14.13;71.92;100280.97;5022884;28;20022;-42
2021/10/06 01:04:59;;;;;;;2.70;2.30;;;;;;;14.13;71.87;100291.56;5019419;28;20055;-41
2021/10/06 01:07:25;;;;;;;3.05;2.83;;;;;;;14.13;71.98;100288.06;5020351;28;20064;-41
2021/10/06 01:09:51;;;;;;;2.72;2.53;;;;;;;14.13;71.89;100291.56;5030596;28;20025;-41
2021/10/06 01:12:18;;;;;;;2.55;2.35;;;;;;;14.13;71.95;100293.38;5030177;28;20035;-43
2021/10/06 01:14:44;;;;;;;2.33;2.13;;;;;;;14.12;71.99;100297.78;5027616;28;20029;-42
2021/10/06 01:17:09;;;;;;;2.17;2.08;;;;;;;14.12;72.00;100300.44;5024273;28;20049;-43
2021/10/06 01:19:34;;;;;;;2.33;2.13;;;;;;;14.12;71.85;100303.09;5031147;28;20418;-42
2021/10/06 01:22:00;;;;;;;2.45;2.25;;;;;;;14.12;72.04;100316.34;5026845;28;20025;-42
2021/10/06 01:24:27;;;;;;;2.97;2.70;;;;;;;14.09;72.00;100312.00;5025676;28;20039;-42
2021/10/06 01:26:52;;;;;;;2.97;2.45;;;;;;;14.09;72.09;100316.44;5025795;28;20049;-42
2021/10/06 01:29:18;;;;;;;2.83;2.60;;;;;;;14.09;72.12;100319.09;5025006;28;20570;-43
2021/10/06 01:31:45;;;;;;;2.15;2.00;;;;;;;14.09;71.97;100321.75;5031441;28;20108;-42
2021/10/06 01:34:11;;;;;;;2.35;2.15;;;;;;;14.08;72.10;100330.63;5035019;28;20033;-42
2021/10/06 01:36:37;;;;;;;2.60;2.40;;;;;;;14.07;72.17;100332.38;5032441;28;20037;-43
2021/10/06 01:39:06;;;;;;;2.20;2.10;;;;;;;14.07;72.07;100335.03;5027754;28;20022;-42
2021/10/06 01:41:32;;;;;;;2.40;2.20;;;;;;;14.07;71.94;100335.03;5027983;28;20048;-43
2021/10/06 01:43:57;;;;;;;2.20;2.00;;;;;;;14.07;72.05;100339.50;5028273;28;20881;-42
2021/10/06 01:46:22;;;;;;;1.92;1.83;;;;;;;14.08;72.08;100342.06;5026065;28;20033;-42
2021/10/06 01:48:48;;;;;;;3.40;1.90;;;;;;;14.07;71.84;100342.16;5027603;28;20044;-43
2021/10/06 01:51:13;;;;;;;2.05;1.95;;;;;;;14.07;72.00;100347.44;5027966;28;20030;-44
2021/10/06 01:53:39;;;;;;;1.75;1.65;;;;;;;14.07;71.93;100355.41;5029438;28;20036;-41
2021/10/06 01:56:05;;;;;;;3.08;2.05;;;;;;;14.06;71.95;100357.19;5027458;28;20033;-41
2021/10/06 01:58:30;;;;;;;2.13;1.92;;;;;;;14.06;71.96;100359.84;5028392;28;20033;-41
2021/10/06 02:00:56;;;;;;;1.95;1.80;;;;;;;14.07;71.95;100372.16;5021774;28;20029;-41
2021/10/06 02:03:21;;;;;;;2.00;1.90;;;;;;;14.06;71.96;100380.16;5025199;28;20037;-41
2021/10/06 02:05:46;;;;;;;2.63;1.77;;;;;;;14.05;72.07;100378.44;5027708;28;20033;-41
2021/10/06 02:08:16;;;;;;;2.22;1.73;;;;;;;14.06;72.08;100380.16;5020055;28;20053;-41
2021/10/06 02:10:43;;;;;;;2.40;1.95;;;;;;;14.06;71.89;100380.16;5025831;28;20056;-40
2021/10/06 02:13:09;;;;;;;1.90;1.80;;;;;;;14.05;71.89;100381.09;5026152;28;20045;-41
2021/10/06 02:15:34;;;;;;;1.73;1.63;;;;;;;14.06;72.08;100380.16;5022417;28;20030;-40
2021/10/06 02:18:00;;;;;;;1.63;1.52;;;;;;;14.05;72.07;100386.38;5022544;28;20494;-40
2021/10/06 02:20:26;;;;;;;1.48;1.38;;;;;;;14.06;71.86;100390.78;5029060;28;20080;-40
2021/10/06 02:22:52;;;;;;;1.52;1.42;;;;;;;14.06;72.00;100393.41;5026949;28;20017;-41
2021/10/06 02:25:17;;;;;;;1.45;1.35;;;;;;;14.05;71.74;100399.66;5027779;28;20036;-41
2021/10/06 02:27:43;;;;;;;1.50;1.40;;;;;;;14.06;71.95;100398.72;5030792;28;20029;-40
2021/10/06 02:30:09;;;;;;;1.75;1.65;;;;;;;14.05;71.96;100399.66;5022312;28;20030;-42
2021/10/06 02:32:34;;;;;;;1.77;1.67;;;;;;;14.04;71.87;100403.22;5027673;28;20030;-41
2021/10/06 02:35:00;;;;;;;1.70;1.60;;;;;;;14.03;71.96;100396.16;5028062;28;20108;-40
2021/10/06 02:37:25;;;;;;;1.50;1.40;;;;;;;14.03;71.83;100390.84;5020576;28;20395;-41
2021/10/06 02:39:50;;;;;;;1.70;1.60;;;;;;;14.04;71.71;100400.56;5023144;28;20079;-41
2021/10/06 02:42:16;;;;;;;1.73;1.63;;;;;;;14.05;71.95;100407.59;5042780;23;20100;-42
2021/10/06 02:44:41;;;;;;;1.50;1.40;;;;;;;14.04;72.04;100408.53;5011612;28;20094;-42
2021/10/06 02:47:07;;;;;;;1.52;1.42;;;;;;;14.03;71.77;100417.38;5011534;28;20030;-42
2021/10/06 02:49:32;;;;;;;1.92;1.40;;;;;;;14.03;71.75;100410.28;5012275;28;20054;-42
2021/10/06 02:51:58;;;;;;;1.55;1.40;;;;;;;14.02;71.90;100416.50;5008089;28;20076;-42
2021/10/06 02:54:23;;;;;;;2.28;1.40;;;;;;;14.02;71.95;100426.25;5005420;28;20084;-42
2021/10/06 02:56:49;;;;;;;1.60;1.50;;;;;;;14.01;71.94;100424.50;5001369;28;20052;-43
2021/10/06 02:59:14;;;;;;;1.27;1.17;;;;;;;14.02;71.92;100423.59;5000011;28;20026;-42
2021/10/06 03:01:39;;;;;;;1.40;1.30;;;;;;;14.01;71.97;100433.34;5004790;28;20034;-42
2021/10/06 03:04:05;;;;;;;1.42;1.30;;;;;;;14.01;71.86;100436.00;5001395;28;20022;-42
2021/10/06 03:06:30;;;;;;;1.58;1.40;;;;;;;14.00;71.83;100439.53;5005353;28;20026;-41
2021/10/06 03:08:55;;;;;;;1.40;1.30;;;;;;;14.01;71.93;100440.41;4984015;28;20060;-41
2021/10/06 03:11:22;;;;;;;1.10;1.10;;;;;;;14.01;71.76;100437.75;5002283;28;20034;-42
2021/10/06 03:13:47;;;;;;;1.50;1.40;;;;;;;13.98;71.75;100442.22;5000036;28;20499;-42
2021/10/06 03:16:13;;;;;;;1.55;1.40;;;;;;;13.99;71.67;100443.09;5009815;28;20033;-41
2021/10/06 03:18:38;;;;;;;1.23;1.13;;;;;;;14.00;71.91;100449.28;5004213;28;20014;-40
2021/10/06 03:21:03;;;;;;;1.58;1.23;;;;;;;13.98;71.83;100452.84;5003583;28;20395;-41
2021/10/06 03:23:29;;;;;;;1.35;1.23;;;;;;;13.97;71.67;100453.75;4989130;28;20030;-41
2021/10/06 03:25:54;;;;;;;1.35;1.25;;;;;;;13.97;71.78;100451.09;5005401;28;20038;-41
2021/10/06 03:28:19;;;;;;;1.50;1.17;;;;;;;13.97;71.64;100453.75;5005692;28;20109;-41
2021/10/06 03:30:45;;;;;;;1.38;1.27;;;;;;;13.96;71.59;100454.66;5002507;28;20468;-41
2021/10/06 03:33:10;;;;;;;1.30;1.20;;;;;;;13.94;71.85;100450.31;4984466;28;20546;-40
2021/10/06 03:35:35;;;;;;;1.10;0.98;;;;;;;13.97;71.68;100468.78;5005843;28;20614;-41
2021/10/06 03:38:01;;;;;;;1.40;1.20;;;;;;;13.96;71.56;100469.69;5000732;28;20030;-41
2021/10/06 03:40:26;;;;;;;1.13;1.02;;;;;;;13.95;71.75;100473.28;5001864;28;20065;-40
2021/10/06 03:42:52;;;;;;;1.25;1.20;;;;;;;13.95;71.69;100482.09;5002698;28;20064;-41
2021/10/06 03:45:17;;;;;;;1.13;1.00;;;;;;;13.94;71.73;100488.28;4996652;28;20361;-41
2021/10/06 03:47:43;;;;;;;1.20;1.10;;;;;;;13.94;71.67;100493.59;5005403;28;20538;-42
2021/10/06 03:50:10;;;;;;;1.05;1.05;;;;;;;13.95;71.76;100502.44;5000703;28;20041;-41
2021/10/06 03:52:36;;;;;;;1.33;1.20;;;;;;;13.92;71.84;100500.75;5002480;28;20044;-41
2021/10/06 03:55:01;;;;;;;1.50;1.42;;;;;;;13.94;71.68;100509.50;5008248;28;20538;-41
2021/10/06 03:57:27;;;;;;;1.30;1.20;;;;;;;13.93;71.75;100512.19;5004096;28;20113;-41
2021/10/06 03:59:53;;;;;;;1.13;1.00;;;;;;;13.93;71.61;100510.44;5001661;28;20112;-40
2021/10/06 04:02:18;;;;;;;1.23;1.15;;;;;;;13.94;71.63;100504.19;5000358;28;20101;-41
2021/10/06 04:04:43;;;;;;;1.00;1.00;;;;;;;13.94;71.71;100509.50;4997738;28;20048;-41
2021/10/06 04:07:09;;;;;;;0.90;0.90;;;;;;;13.93;71.71;100506.88;4999004;28;20026;-42
2021/10/06 04:09:34;;;;;;;1.10;1.00;;;;;;;13.93;71.71;100507.78;5001272;28;20037;-41
2021/10/06 04:11:59;;;;;;;2.05;1.25;;;;;;;13.92;71.74;100511.34;5003910;28;20150;-41
2021/10/06 04:14:24;;;;;;;1.20;1.10;;;;;;;13.93;71.63;100513.06;4999911;28;20122;-40
2021/10/06 04:16:50;;;;;;;1.00;0.95;;;;;;;13.92;71.54;100515.75;5002914;28;20125;-43
2021/10/06 04:19:15;;;;;;;1.08;1.00;;;;;;;13.92;71.45;100529.91;5001611;28;20622;-43
2021/10/06 04:21:41;;;;;;;1.33;1.00;;;;;;;13.92;71.40;100537.84;4999478;28;20464;-43
2021/10/06 04:24:07;;;;;;;2.50;1.45;;;;;;;13.91;71.52;100528.13;4998042;28;20018;-42
2021/10/06 04:26:33;;;;;;;0.73;0.70;;;;;;;13.91;71.54;100533.44;4987222;28;20021;-42
2021/10/06 04:29:01;;;;;;;0.90;0.90;;;;;;;13.89;71.63;100543.22;4983031;28;20025;-42
2021/10/06 04:31:27;;;;;;;1.08;0.98;;;;;;;13.91;71.67;100535.25;4997998;28;20034;-42
2021/10/06 04:33:56;;;;;;;1.00;0.90;;;;;;;13.89;71.63;100543.22;4986560;28;20037;-42
2021/10/06 04:36:22;;;;;;;1.00;0.90;;;;;;;13.90;71.48;100544.09;5002560;28;20041;-42
2021/10/06 04:38:48;;;;;;;0.80;0.80;;;;;;;13.90;71.63;100552.06;4997743;28;20029;-42
2021/10/06 04:41:14;;;;;;;2.40;1.10;;;;;;;13.90;71.71;100549.41;4982809;28;20050;-42
2021/10/06 04:43:40;;;;;;;0.85;0.85;;;;;;;13.90;71.54;100550.25;5025990;23;20115;-42
2021/10/06 04:46:05;;;;;;;0.95;0.77;;;;;;;13.88;71.56;100553.88;5031439;28;20048;-41
2021/10/06 04:48:34;;;;;;;1.58;1.05;;;;;;;13.88;71.63;100553.88;5030402;28;20037;-42
2021/10/06 04:50:59;;;;;;;1.08;0.98;;;;;;;13.88;71.61;100564.47;5029163;28;20395;-41
2021/10/06 04:53:24;;;;;;;1.70;0.90;;;;;;;13.87;71.55;100566.25;5022232;28;20037;-42
2021/10/06 04:55:50;;;;;;;0.90;0.90;;;;;;;13.88;71.53;100570.66;5023570;28;20139;-42
2021/10/06 04:58:15;;;;;;;2.35;1.40;;;;;;;13.87;71.67;100574.19;5023395;28;20361;-42
2021/10/06 05:00:40;;;;;;;1.90;1.00;;;;;;;13.87;71.69;100579.50;5023536;28;20025;-42
2021/10/06 05:03:10;;;;;;;1.13;1.00;;;;;;;13.86;71.54;100583.06;5021886;28;20029;-42
2021/10/06 05:05:36;;;;;;;1.17;1.10;;;;;;;13.85;71.61;100578.69;5027736;28;20029;-42
2021/10/06 05:08:01;;;;;;;1.70;1.42;;;;;;;13.85;71.41;100579.53;5016621;28;20542;-42
2021/10/06 05:10:27;;;;;;;0.80;0.80;;;;;;;13.86;71.62;100593.66;5020459;28;20030;-42
2021/10/06 05:12:52;;;;;;;2.22;0.90;;;;;;;13.85;71.68;100594.59;5017048;28;20064;-42
2021/10/06 05:15:18;;;;;;;0.75;0.75;;;;;;;13.86;71.54;100606.91;5017987;28;20025;-42
2021/10/06 05:17:43;;;;;;;1.00;0.80;;;;;;;13.85;71.51;100590.13;5021510;28;20037;-42
2021/10/06 05:20:09;;;;;;;1.10;0.90;;;;;;;13.84;71.61;100599.00;5024001;28;20022;-42
2021/10/06 05:22:34;;;;;;;0.73;0.73;;;;;;;13.84;71.42;100599.00;5019329;28;20369;-42
2021/10/06 05:24:59;;;;;;;1.00;0.90;;;;;;;13.84;71.64;100614.06;5021392;28;20033;-42
2021/10/06 05:27:25;;;;;;;0.60;0.60;;;;;;;13.82;71.41;100610.56;5017171;28;20034;-42
2021/10/06 05:29:50;;;;;;;1.23;0.75;;;;;;;13.82;71.85;100615.84;5020464;28;20029;-42
2021/10/06 05:32:15;;;;;;;2.13;1.13;;;;;;;13.82;71.58;100624.69;5017311;28;20029;-42
2021/10/06 05:34:41;;;;;;;0.93;0.93;;;;;;;13.81;71.51;100625.56;5022805;28;20103;-42
2021/10/06 05:37:06;;;;;;;0.80;0.80;;;;;;;13.80;71.61;100625.59;5013569;28;20490;-42
2021/10/06 05:39:31;;;;;;;1.00;0.80;;;;;;;13.79;71.43;100621.22;5020849;28;20025;-42
2021/10/06 05:41:57;;;;;;;0.70;0.70;;;;;;;13.79;71.52;100618.56;5020781;28;20033;-42
2021/10/06 05:44:22;;;;;;;1.80;1.00;;;;;;;13.81;71.67;100627.38;5021578;28;20099;-41
2021/10/06 05:46:47;;;;;;;0.80;0.70;;;;;;;13.80;71.40;100628.25;5020571;28;20017;-42
2021/10/06 05:49:14;;;;;;;0.80;0.80;;;;;;;13.80;71.58;100622.97;5014302;28;20117;-42
2021/10/06 05:52:04;;;;;;;1.08;1.00;;;;;;;13.78;71.55;100630.97;5026179;28;20719;-42
2021/10/06 05:55:07;;;;;;;1.15;1.10;;;;;;;13.79;71.49;100642.44;5018448;28;20029;-42
2021/10/06 05:57:32;;;;;;;0.88;0.88;;;;;;;13.77;71.44;100637.16;5024496;28;20025;-42
2021/10/06 05:59:58;;;;;;;0.90;0.90;;;;;;;13.75;71.62;100646.94;5021197;28;20048;-42
2021/10/06 06:02:23;;;;;;;0.80;0.80;;;;;;;13.77;71.74;100654.88;5025785;28;20033;-42
2021/10/06 06:04:48;;;;;;;0.95;0.95;;;;;;;13.76;71.54;100661.03;5021405;28;20369;-42
2021/10/06 06:07:14;;;;;;;1.05;0.85;;;;;;;13.76;71.44;100666.34;5023636;28;20049;-41
2021/10/06 06:09:39;;;;;;;1.52;1.00;;;;;;;13.77;71.38;100676.06;5020983;28;20025;-42
2021/10/06 06:12:09;;;;;;;1.15;1.02;;;;;;;13.76;71.44;100682.25;5022920;28;20032;-42
2021/10/06 06:14:35;;;;;;;1.02;0.95;;;;;;;13.75;71.49;100686.69;5021936;28;20026;-41
2021/10/06 06:17:00;;;;;;;0.93;0.93;;;;;;;13.75;71.50;100683.16;5019637;28;20111;-42
2021/10/06 06:19:25;;;;;;;1.33;0.70;;;;;;;13.77;71.49;100684.03;5022461;28;20026;-42
2021/10/06 06:21:51;;;;;;;0.85;0.80;;;;;;;13.75;71.55;100689.34;5022627;28;20026;-41
2021/10/06 06:24:16;;;;;;;1.25;0.85;;;;;;;13.74;71.45;100690.22;5024473;28;20055;-42
2021/10/06 06:26:42;;;;;;;0.82;0.82;;;;;;;13.73;71.54;100692.03;5023792;28;20478;-42
2021/10/06 06:29:07;;;;;;;0.98;0.90;;;;;;;13.74;71.29;100698.19;5016673;28;20034;-42
2021/10/06 06:31:32;;;;;;;1.08;1.00;;;;;;;13.73;71.47;100697.34;5026014;28;20056;-42
2021/10/06 06:33:58;;;;;;;2.28;1.00;;;;;;;13.73;71.46;100705.28;5023371;28;20025;-41
2021/10/06 06:36:23;;;;;;;1.10;1.10;;;;;;;13.72;71.33;100706.19;5022245;28;20030;-42
2021/10/06 06:38:48;;;;;;;0.95;0.90;;;;;;;13.71;71.65;100709.72;5021465;28;20037;-42
2021/10/06 06:41:13;;;;;;;0.80;0.80;;;;;;;13.72;71.50;100715.91;5021905;28;20373;-42
2021/10/06 06:43:39;;;;;;;1.45;1.10;;;;;;;13.71;71.46;100723.00;5023218;28;20462;-42
2021/10/06 06:46:04;;;;;;;0.93;0.80;;;;;;;13.71;71.39;100724.78;5023173;28;20053;-42
2021/10/06 06:48:31;;;;;;;1.00;0.90;;;;;;;13.70;71.40;100718.59;5024393;28;20018;-42
2021/10/06 06:50:59;;;;;;;0.80;0.80;;;;;;;13.70;71.32;100718.59;5023526;28;20475;-42
2021/10/06 06:53:28;;;;;;;1.15;1.00;;;;;;;13.70;71.34;100707.13;5021309;28;20022;-42
2021/10/06 06:55:55;;;;;;;1.15;0.90;;;;;;;13.69;71.27;100715.97;5021079;28;20029;-42
2021/10/06 06:58:20;;;;;;;1.50;1.00;;;;;;;13.69;71.56;100711.56;5021183;28;20112;-42
2021/10/06 07:00:46;;;;;;;1.13;1.02;;;;;;;13.69;71.44;100721.28;5022160;28;20049;-42
2021/10/06 07:03:11;;;;;;;1.80;1.60;;;;;;;13.68;71.36;100715.13;5025539;28;20037;-42
2021/10/06 07:05:36;;;;;;;1.02;1.00;;;;;;;13.67;71.29;100713.34;5021181;28;20029;-42
2021/10/06 07:08:02;;;;;;;0.73;0.73;;;;;;;13.70;71.41;100723.00;5024797;28;20076;-42
2021/10/06 07:10:28;;;;;;;0.88;0.88;;;;;;;13.69;71.36;100722.16;5025462;28;20040;-42
2021/10/06 07:12:53;;;;;;;1.08;0.95;;;;;;;13.68;71.05;100714.25;5023202;28;20036;-42
2021/10/06 07:15:18;;;;;;;1.40;0.98;;;;;;;13.68;71.59;100728.38;5017031;28;20033;-42
2021/10/06 07:17:44;;;;;;;1.77;0.80;;;;;;;13.68;71.38;100738.97;5022203;28;20049;-42
2021/10/06 07:20:09;;;;;;;1.02;1.00;;;;;;;13.68;71.40;100736.34;5019958;28;20075;-42
2021/10/06 07:22:35;;;;;;;1.88;1.20;;;;;;;13.69;71.37;100737.19;5026162;28;20032;-42
2021/10/06 07:25:02;;;;;;;1.95;1.10;;;;;;;13.68;71.39;100741.63;5022955;28;20053;-42
2021/10/06 07:27:27;;;;;;;0.90;0.90;;;;;;;13.69;71.47;100745.13;5020240;28;20101;-41
2021/10/06 07:29:53;;;;;;;0.90;0.90;;;;;;;13.67;71.43;100755.75;5019013;28;20033;-42
2021/10/06 07:32:18;;;;;;;1.30;1.20;;;;;;;13.68;71.33;100759.31;5022810;28;20026;-42
2021/10/06 07:34:44;;;;;;;1.40;1.23;;;;;;;13.68;71.35;100746.03;5022879;28;20017;-42
2021/10/06 07:37:09;;;;;;;1.05;0.95;;;;;;;13.67;71.48;100761.06;5018594;28;20495;-41
2021/10/06 07:39:34;;;;;;;0.90;0.90;;;;;;;13.67;71.40;100750.47;5022068;28;20087;-42
2021/10/06 07:42:00;;;;;;;0.98;0.90;;;;;;;13.67;71.48;100752.25;5021723;28;20044;-42
2021/10/06 07:44:26;;;;;;;0.80;0.80;;;;;;;13.66;71.18;100756.69;5021612;28;20022;-42
2021/10/06 07:46:52;;;;;;;0.90;0.90;;;;;;;13.67;71.31;100760.22;5018075;28;20120;-42
2021/10/06 07:49:17;;;;;;;1.23;1.10;;;;;;;13.66;71.49;100764.63;5017249;28;20219;-42
2021/10/06 07:51:42;;;;;;;1.08;1.00;;;;;;;13.66;71.40;100758.44;5024383;28;20104;-42
2021/10/06 07:54:08;;;;;;;1.40;1.20;;;;;;;13.66;71.59;100766.41;5021078;28;20411;-42
2021/10/06 07:56:33;;;;;;;1.23;1.13;;;;;;;13.65;71.43;100765.53;5025185;28;20400;-42
2021/10/06 07:59:05;;;;;;;1.08;1.00;;;;;;;13.66;71.34;100774.34;5014318;28;20018;-42
2021/10/06 08:01:31;;;;;;;1.40;1.20;;;;;;;13.65;71.61;100778.78;5025065;28;20072;-42
2021/10/06 08:03:56;;;;;;;1.42;1.02;;;;;;;13.65;71.32;100794.69;5024172;28;20022;-42
2021/10/06 08:06:21;;;;;;;1.67;1.10;;;;;;;13.64;71.44;100790.28;5020730;28;20025;-42
2021/10/06 08:08:48;;;;;;;1.00;0.90;;;;;;;13.65;71.51;100793.81;5019563;28;20052;-42
2021/10/06 08:11:13;;;;;;;1.48;0.90;;;;;;;13.64;71.39;100808.81;5019540;28;20032;-42
2021/10/06 08:13:42;;;;;;;1.13;1.02;;;;;;;13.65;71.60;100818.53;5023778;28;20025;-42
2021/10/06 08:16:07;;;;;;;1.23;1.05;;;;;;;13.65;71.42;100815.91;5021059;28;20022;-42
2021/10/06 08:18:33;;;;;;;3.05;1.30;;;;;;;13.63;71.50;100817.69;5013938;28;20018;-42
2021/10/06 08:20:58;;;;;;;1.42;1.02;;;;;;;13.64;71.53;100814.13;5019052;28;20033;-42
2021/10/06 08:23:26;;;;;;;1.38;0.90;;;;;;;13.64;71.55;100819.44;5022551;28;20069;-41
2021/10/06 08:25:52;;;;;;;1.38;1.27;;;;;;;13.63;71.43;100817.69;5018697;28;20086;-42
2021/10/06 08:28:19;;;;;;;1.40;1.10;;;;;;;13.62;71.64;100815.94;5020130;28;20021;-42
2021/10/06 08:30:45;;;;;;;1.52;1.23;;;;;;;13.60;71.39;100810.69;5021350;28;20029;-42
2021/10/06 08:33:10;;;;;;;3.90;1.52;;;;;;;13.63;71.65;100816.84;5020089;28;20089;-42
2021/10/06 08:35:37;;;;;;;1.13;1.10;;;;;;;13.62;71.59;100826.56;5024624;28;20041;-42
2021/10/06 08:38:03;;;;;;;1.23;1.15;;;;;;;13.62;71.63;100829.19;5020164;28;20028;-42
2021/10/06 08:40:30;;;;;;;1.73;1.25;;;;;;;13.60;71.63;100825.69;5029117;28;20029;-42
2021/10/06 08:42:55;;;;;;;2.13;1.20;;;;;;;13.61;71.68;100840.72;5018413;28;20030;-42
2021/10/06 08:45:20;;;;;;;0.95;0.95;;;;;;;13.59;71.51;100835.44;5020618;28;20068;-42
2021/10/06 08:47:46;;;;;;;1.40;1.30;;;;;;;13.59;71.52;100842.50;5015753;28;20574;-42
2021/10/06 08:50:14;;;;;;;1.13;1.08;;;;;;;13.61;71.62;100851.31;5022426;28;20033;-42
2021/10/06 08:52:39;;;;;;;1.10;1.00;;;;;;;13.59;71.49;100853.09;5016903;28;20022;-42
2021/10/06 08:55:06;;;;;;;1.23;1.00;;;;;;;13.59;71.54;100842.50;5019339;28;20033;-42
2021/10/06 08:57:32;;;;;;;1.10;1.00;;;;;;;13.59;71.49;100845.16;5016874;28;20855;-42
2021/10/06 08:59:58;;;;;;;2.60;1.35;;;;;;;13.60;71.51;100854.84;5012798;28;20122;-42
2021/10/06 09:02:23;;;;;;;1.50;0.88;;;;;;;13.59;71.43;100853.09;5020633;28;20025;-42
2021/10/06 09:04:49;;;;;;;3.22;1.08;;;;;;;13.59;71.53;100855.75;5016873;28;20045;-42
2021/10/06 09:07:14;;;;;;;1.10;1.02;;;;;;;13.59;71.50;100859.28;5021729;28;20543;-42
2021/10/06 09:09:40;;;;;;;1.55;1.00;;;;;;;13.58;71.66;100861.97;5017483;28;20490;-42
2021/10/06 09:12:28;;;;;;;0.98;0.98;;;;;;;13.59;71.61;100858.41;5017794;28;20053;-42
2021/10/06 09:14:56;;;;;;;1.10;1.02;;;;;;;13.59;71.46;100869.00;5021094;28;20503;-42
2021/10/06 09:17:21;;;;;;;1.05;0.98;;;;;;;13.59;71.08;100871.66;5018978;28;20030;-42
2021/10/06 09:19:53;;;;;;;1.55;1.27;;;;;;;13.58;71.44;100872.56;5020494;28;20037;-41
2021/10/06 09:22:20;;;;;;;1.60;1.02;;;;;;;13.58;71.62;100875.22;5015692;28;20480;-42
2021/10/06 09:24:52;;;;;;;1.63;1.40;;;;;;;13.58;71.45;100873.41;5024366;28;20025;-42
2021/10/06 09:27:29;;;;;;;1.17;1.08;;;;;;;13.59;71.32;100879.59;5021026;28;20032;-42
2021/10/06 09:30:15;;;;;;;1.48;1.38;;;;;;;13.58;71.54;100869.91;5020173;28;20129;-42
2021/10/06 09:32:45;;;;;;;1.80;1.23;;;;;;;13.56;71.43;100875.25;5020196;28;20030;-42
2021/10/06 09:35:11;;;;;;;2.05;1.52;;;;;;;13.56;71.44;100869.94;5024409;28;20112;-42
2021/10/06 09:37:38;;;;;;;0.90;0.90;;;;;;;13.56;71.29;100859.34;5024782;28;20040;-42
2021/10/06 09:40:07;;;;;;;1.40;1.10;;;;;;;13.57;71.20;100876.97;5020580;28;20018;-42
2021/10/06 09:42:44;;;;;;;3.97;1.60;;;;;;;13.58;71.46;100877.88;5021498;28;20033;-42
2021/10/06 09:45:10;;;;;;;1.85;1.27;;;;;;;13.57;71.23;100882.28;5022353;28;20021;-42
2021/10/06 09:47:35;;;;;;;1.45;1.33;;;;;;;13.57;71.13;100876.97;5029133;28;20109;-43
2021/10/06 09:50:01;;;;;;;1.50;1.40;;;;;;;13.56;71.12;100880.53;5017280;28;20032;-42
2021/10/06 09:52:28;;;;;;;1.35;1.25;;;;;;;13.56;71.34;100891.13;5023569;28;20105;-41
2021/10/06 09:55:02;;;;;;;1.50;1.40;;;;;;;13.57;71.15;100892.03;5022047;28;20014;-42
2021/10/06 09:57:29;;;;;;;2.67;1.48;;;;;;;13.57;71.07;100886.72;5022591;28;20030;-42
2021/10/06 09:59:56;;;;;;;1.70;1.27;;;;;;;13.56;71.20;100890.25;5023139;28;20029;-42
2021/10/06 10:02:21;;;;;;;1.30;1.20;;;;;;;13.56;70.88;100895.56;5023900;28;20076;-42
2021/10/06 10:04:47;;;;;;;0.98;0.98;;;;;;;13.55;70.90;100899.13;5023998;28;20442;-41
2021/10/06 10:07:13;;;;;;;1.95;1.55;;;;;;;13.55;71.17;100894.69;5020623;28;20025;-42
2021/10/06 10:09:42;;;;;;;4.35;1.60;;;;;;;13.56;70.96;100900.84;5018642;28;20033;-42
2021/10/06 10:12:09;;;;;;;1.85;1.60;;;;;;;13.56;70.92;100900.84;5020319;28;20030;-42
2021/10/06 10:14:34;;;;;;;1.67;1.42;;;;;;;13.57;70.76;100902.63;5026288;28;20399;-42
2021/10/06 10:16:59;;;;;;;1.58;1.48;;;;;;;13.57;70.92;100910.56;5021885;28;20476;-42
2021/10/06 10:19:27;;;;;;;2.10;1.35;;;;;;;13.55;71.11;100905.31;5025730;28;20038;-42
2021/10/06 10:21:53;;;;;;;2.20;1.48;;;;;;;13.55;70.85;100904.41;5024520;28;20087;-42
2021/10/06 10:24:23;;;;;;;1.83;1.73;;;;;;;13.55;70.92;100907.94;5022329;28;20100;-42
2021/10/06 10:27:04;;;;;;;1.67;1.33;;;;;;;13.55;70.85;100915.00;5027996;28;20434;-42
2021/10/06 10:29:43;;;;;;;1.20;1.10;;;;;;;13.56;70.73;100916.75;5023112;28;20484;-42
2021/10/06 10:32:09;;;;;;;1.40;1.20;;;;;;;13.54;70.77;100923.88;5021414;28;20022;-42
2021/10/06 10:34:56;;;;;;;1.40;1.30;;;;;;;13.55;70.79;100929.16;5025656;28;20080;-42
2021/10/06 10:37:53;;;;;;;2.05;1.20;;;;;;;13.55;70.78;100925.63;5029132;28;20072;-40
2021/10/06 10:40:30;;;;;;;2.50;1.50;;;;;;;13.55;70.80;100920.31;5022429;28;20025;-41
2021/10/06 10:43:00;;;;;;;3.75;2.10;;;;;;;13.55;70.80;100926.50;5020519;28;20029;-42
2021/10/06 10:45:44;;;;;;;1.92;1.70;;;;;;;13.55;70.80;100915.91;5027216;28;20029;-42
2021/10/06 10:48:58;;;;;;;1.45;1.35;;;;;;;13.55;70.83;100915.91;5019112;28;20475;-42
2021/10/06 10:51:43;;;;;;;1.50;1.40;;;;;;;13.55;70.74;100912.38;5024573;28;20501;-42
2021/10/06 10:54:11;;;;;;;2.70;1.83;;;;;;;13.54;70.53;100903.53;5020910;28;20079;-42
2021/10/06 10:56:48;;;;;;;1.20;1.10;;;;;;;13.55;70.93;100909.72;5029203;28;20025;-40
2021/10/06 10:59:15;;;;;;;1.50;1.40;;;;;;;13.54;70.69;100907.97;5041248;23;20033;-43
2021/10/06 11:01:52;;;;;;;1.40;1.30;;;;;;;13.55;70.83;100907.06;5020187;28;20024;-46
2021/10/06 11:04:24;;;;;;;1.70;1.30;;;;;;;13.55;70.84;100921.19;5027815;28;20078;-45
2021/10/06 11:06:54;;;;;;;1.60;1.50;;;;;;;13.56;70.79;100914.09;5026934;28;20073;-45
2021/10/06 11:09:31;;;;;;;2.10;1.60;;;;;;;13.56;70.82;100911.44;5017854;28;20026;-46
2021/10/06 11:12:12;;;;;;;1.95;1.35;;;;;;;13.56;70.80;100911.44;5012929;28;20045;-44
2021/10/06 11:14:40;;;;;;;3.50;1.73;;;;;;;13.55;70.84;100920.31;5012612;28;20080;-44
2021/10/06 11:17:06;;;;;;;1.73;1.50;;;;;;;13.56;70.74;100911.44;5012690;28;20502;-44
2021/10/06 11:19:47;;;;;;;1.65;1.55;;;;;;;13.56;70.81;100916.75;5010492;28;20030;-45
2021/10/06 11:22:24;;;;;;;;;;;;;;;13.57;70.77;100929.13;5012907;28;20453;-47
2021/10/06 11:25:01;;;;;;;1.45;1.38;;;;;;;13.56;70.79;100927.34;5012752;28;20298;-46